sensor_id;sensor_type;location;lat;lon;timestamp;P1;durP1;ratioP1;P2;durP2;ratioP2
45466;SDS011;31212;49.734;8.490;2023-05-10T00:00:48;1.83;;;0.88;;
45466;SDS011;31212;49.734;8.490;2023-05-10T00:03:15;0.47;;;0.35;;
45466;SDS011;31212;49.734;8.490;2023-05-10T00:05:42;3.10;;;0.90;;
45466;SDS011;31212;49.734;8.490;2023-05-10T00:08:08;0.85;;;0.75;;
45466;SDS011;31212;49.734;8.490;2023-05-10T00:10:36;0.93;;;0.70;;
45466;SDS011;31212;49.734;8.490;2023-05-10T00:13:03;0.80;;;0.65;;
45466;SDS011;31212;49.734;8.490;2023-05-10T00:15:29;0.70;;;0.70;;
45466;SDS011;31212;49.734;8.490;2023-05-10T00:17:56;0.73;;;0.68;;
45466;SDS011;31212;49.734;8.490;2023-05-10T00:20:23;0.65;;;0.60;;
45466;SDS011;31212;49.734;8.490;2023-05-10T00:22:49;2.85;;;0.80;;
45466;SDS011;31212;49.734;8.490;2023-05-10T00:25:16;0.50;;;0.50;;
45466;SDS011;31212;49.734;8.490;2023-05-10T00:27:44;2.72;;;1.02;;
45466;SDS011;31212;49.734;8.490;2023-05-10T00:30:10;1.50;;;0.88;;
45466;SDS011;31212;49.734;8.490;2023-05-10T00:32:37;0.80;;;0.77;;
45466;SDS011;31212;49.734;8.490;2023-05-10T00:35:04;1.17;;;1.08;;
45466;SDS011;31212;49.734;8.490;2023-05-10T00:37:31;6.45;;;1.00;;
45466;SDS011;31212;49.734;8.490;2023-05-10T00:39:58;1.85;;;1.52;;
45466;SDS011;31212;49.734;8.490;2023-05-10T00:42:25;1.80;;;1.40;;
45466;SDS011;31212;49.734;8.490;2023-05-10T00:44:55;3.88;;;0.90;;
45466;SDS011;31212;49.734;8.490;2023-05-10T00:47:21;1.98;;;0.90;;
45466;SDS011;31212;49.734;8.490;2023-05-10T00:49:48;1.17;;;1.08;;
45466;SDS011;31212;49.734;8.490;2023-05-10T00:52:16;1.48;;;0.95;;
45466;SDS011;31212;49.734;8.490;2023-05-10T00:54:42;1.80;;;1.15;;
45466;SDS011;31212;49.734;8.490;2023-05-10T00:57:09;1.23;;;1.13;;
45466;SDS011;31212;49.734;8.490;2023-05-10T00:59:36;4.07;;;1.10;;
45466;SDS011;31212;49.734;8.490;2023-05-10T01:02:05;0.98;;;0.88;;
45466;SDS011;31212;49.734;8.490;2023-05-10T01:04:32;1.85;;;1.23;;
45466;SDS011;31212;49.734;8.490;2023-05-10T01:06:59;1.10;;;0.80;;
45466;SDS011;31212;49.734;8.490;2023-05-10T01:09:26;1.60;;;1.10;;
45466;SDS011;31212;49.734;8.490;2023-05-10T01:11:53;1.25;;;1.02;;
45466;SDS011;31212;49.734;8.490;2023-05-10T01:14:20;1.42;;;0.88;;
45466;SDS011;31212;49.734;8.490;2023-05-10T01:16:48;1.33;;;0.93;;
45466;SDS011;31212;49.734;8.490;2023-05-10T01:19:18;1.75;;;1.05;;
45466;SDS011;31212;49.734;8.490;2023-05-10T01:21:49;1.50;;;0.80;;
45466;SDS011;31212;49.734;8.490;2023-05-10T01:27:37;1.40;;;1.17;;
45466;SDS011;31212;49.734;8.490;2023-05-10T01:30:25;1.83;;;1.20;;
45466;SDS011;31212;49.734;8.490;2023-05-10T01:33:09;3.33;;;1.45;;
45466;SDS011;31212;49.734;8.490;2023-05-10T01:35:39;1.48;;;1.23;;
45466;SDS011;31212;49.734;8.490;2023-05-10T01:38:12;2.45;;;1.33;;
45466;SDS011;31212;49.734;8.490;2023-05-10T01:40:46;4.57;;;2.45;;
45466;SDS011;31212;49.734;8.490;2023-05-10T01:43:19;11.10;;;4.15;;
45466;SDS011;31212;49.734;8.490;2023-05-10T01:45:56;7.55;;;4.82;;
45466;SDS011;31212;49.734;8.490;2023-05-10T01:48:31;10.23;;;5.72;;
45466;SDS011;31212;49.734;8.490;2023-05-10T01:50:59;8.00;;;4.95;;
45466;SDS011;31212;49.734;8.490;2023-05-10T01:53:26;5.97;;;3.75;;
45466;SDS011;31212;49.734;8.490;2023-05-10T01:55:54;5.28;;;2.65;;
45466;SDS011;31212;49.734;8.490;2023-05-10T01:58:22;4.50;;;1.88;;
45466;SDS011;31212;49.734;8.490;2023-05-10T02:00:53;3.45;;;2.00;;
45466;SDS011;31212;49.734;8.490;2023-05-10T02:03:21;2.47;;;1.60;;
45466;SDS011;31212;49.734;8.490;2023-05-10T02:05:51;4.22;;;2.17;;
45466;SDS011;31212;49.734;8.490;2023-05-10T02:08:20;5.97;;;1.83;;
45466;SDS011;31212;49.734;8.490;2023-05-10T02:10:48;2.60;;;1.83;;
45466;SDS011;31212;49.734;8.490;2023-05-10T02:13:17;4.03;;;2.05;;
45466;SDS011;31212;49.734;8.490;2023-05-10T02:15:45;2.35;;;1.75;;
45466;SDS011;31212;49.734;8.490;2023-05-10T02:18:14;3.05;;;2.70;;
45466;SDS011;31212;49.734;8.490;2023-05-10T02:20:41;7.55;;;2.45;;
45466;SDS011;31212;49.734;8.490;2023-05-10T02:23:11;6.63;;;2.15;;
45466;SDS011;31212;49.734;8.490;2023-05-10T02:25:38;5.00;;;2.40;;
45466;SDS011;31212;49.734;8.490;2023-05-10T02:28:06;5.22;;;2.92;;
45466;SDS011;31212;49.734;8.490;2023-05-10T02:30:34;6.90;;;4.45;;
45466;SDS011;31212;49.734;8.490;2023-05-10T02:33:01;8.05;;;4.93;;
45466;SDS011;31212;49.734;8.490;2023-05-10T02:35:31;9.38;;;5.53;;
45466;SDS011;31212;49.734;8.490;2023-05-10T02:37:58;5.80;;;3.50;;
45466;SDS011;31212;49.734;8.490;2023-05-10T02:40:27;6.05;;;4.15;;
45466;SDS011;31212;49.734;8.490;2023-05-10T02:42:55;7.22;;;4.97;;
45466;SDS011;31212;49.734;8.490;2023-05-10T02:45:24;6.82;;;4.43;;
45466;SDS011;31212;49.734;8.490;2023-05-10T02:47:55;9.65;;;5.25;;
45466;SDS011;31212;49.734;8.490;2023-05-10T02:50:22;8.18;;;3.83;;
45466;SDS011;31212;49.734;8.490;2023-05-10T02:52:54;6.60;;;2.65;;
45466;SDS011;31212;49.734;8.490;2023-05-10T02:55:27;4.18;;;3.35;;
45466;SDS011;31212;49.734;8.490;2023-05-10T02:58:01;5.28;;;2.75;;
45466;SDS011;31212;49.734;8.490;2023-05-10T03:00:29;5.35;;;3.30;;
45466;SDS011;31212;49.734;8.490;2023-05-10T03:02:55;3.25;;;2.25;;
45466;SDS011;31212;49.734;8.490;2023-05-10T03:05:22;4.60;;;2.50;;
45466;SDS011;31212;49.734;8.490;2023-05-10T03:07:48;3.75;;;2.67;;
45466;SDS011;31212;49.734;8.490;2023-05-10T03:10:16;4.45;;;2.78;;
45466;SDS011;31212;49.734;8.490;2023-05-10T03:12:55;4.55;;;2.40;;
45466;SDS011;31212;49.734;8.490;2023-05-10T03:15:30;5.78;;;3.05;;
45466;SDS011;31212;49.734;8.490;2023-05-10T03:18:11;6.85;;;3.30;;
45466;SDS011;31212;49.734;8.490;2023-05-10T03:20:42;5.03;;;2.97;;
45466;SDS011;31212;49.734;8.490;2023-05-10T03:23:13;8.25;;;2.08;;
45466;SDS011;31212;49.734;8.490;2023-05-10T03:25:48;4.55;;;2.58;;
45466;SDS011;31212;49.734;8.490;2023-05-10T03:28:17;5.50;;;3.00;;
45466;SDS011;31212;49.734;8.490;2023-05-10T03:30:45;6.05;;;4.40;;
45466;SDS011;31212;49.734;8.490;2023-05-10T03:33:12;6.72;;;4.75;;
45466;SDS011;31212;49.734;8.490;2023-05-10T03:35:42;10.65;;;3.47;;
45466;SDS011;31212;49.734;8.490;2023-05-10T03:38:10;6.05;;;3.53;;
45466;SDS011;31212;49.734;8.490;2023-05-10T03:40:37;4.38;;;2.80;;
45466;SDS011;31212;49.734;8.490;2023-05-10T03:43:04;4.30;;;2.65;;
45466;SDS011;31212;49.734;8.490;2023-05-10T03:45:32;5.78;;;2.50;;
45466;SDS011;31212;49.734;8.490;2023-05-10T03:47:58;6.20;;;1.98;;
45466;SDS011;31212;49.734;8.490;2023-05-10T03:50:25;3.00;;;2.08;;
45466;SDS011;31212;49.734;8.490;2023-05-10T03:52:52;8.18;;;2.55;;
45466;SDS011;31212;49.734;8.490;2023-05-10T03:55:19;3.42;;;1.90;;
45466;SDS011;31212;49.734;8.490;2023-05-10T03:57:45;3.15;;;1.92;;
45466;SDS011;31212;49.734;8.490;2023-05-10T04:00:14;5.35;;;2.53;;
45466;SDS011;31212;49.734;8.490;2023-05-10T04:02:42;3.30;;;2.25;;
45466;SDS011;31212;49.734;8.490;2023-05-10T04:05:15;2.90;;;2.42;;
45466;SDS011;31212;49.734;8.490;2023-05-10T04:07:41;5.38;;;3.00;;
45466;SDS011;31212;49.734;8.490;2023-05-10T04:10:10;5.65;;;2.90;;
45466;SDS011;31212;49.734;8.490;2023-05-10T04:12:37;7.18;;;5.55;;
45466;SDS011;31212;49.734;8.490;2023-05-10T04:15:03;10.48;;;7.25;;
45466;SDS011;31212;49.734;8.490;2023-05-10T04:17:31;10.13;;;6.15;;
45466;SDS011;31212;49.734;8.490;2023-05-10T04:19:59;7.47;;;4.60;;
45466;SDS011;31212;49.734;8.490;2023-05-10T04:22:25;5.78;;;3.20;;
45466;SDS011;31212;49.734;8.490;2023-05-10T04:24:52;7.70;;;3.25;;
45466;SDS011;31212;49.734;8.490;2023-05-10T04:27:19;4.25;;;2.80;;
45466;SDS011;31212;49.734;8.490;2023-05-10T04:29:45;5.13;;;3.28;;
45466;SDS011;31212;49.734;8.490;2023-05-10T04:32:12;5.60;;;3.10;;
45466;SDS011;31212;49.734;8.490;2023-05-10T04:34:38;6.70;;;2.83;;
45466;SDS011;31212;49.734;8.490;2023-05-10T04:37:06;6.95;;;2.85;;
45466;SDS011;31212;49.734;8.490;2023-05-10T04:39:33;3.25;;;2.40;;
45466;SDS011;31212;49.734;8.490;2023-05-10T04:42:00;6.35;;;2.63;;
45466;SDS011;31212;49.734;8.490;2023-05-10T04:44:27;7.15;;;2.05;;
45466;SDS011;31212;49.734;8.490;2023-05-10T04:46:54;2.92;;;1.77;;
45466;SDS011;31212;49.734;8.490;2023-05-10T04:49:21;4.25;;;2.47;;
45466;SDS011;31212;49.734;8.490;2023-05-10T04:51:47;8.43;;;2.80;;
45466;SDS011;31212;49.734;8.490;2023-05-10T04:54:15;3.28;;;2.33;;
45466;SDS011;31212;49.734;8.490;2023-05-10T04:56:42;3.63;;;2.20;;
45466;SDS011;31212;49.734;8.490;2023-05-10T04:59:08;3.47;;;2.15;;
45466;SDS011;31212;49.734;8.490;2023-05-10T05:01:34;2.50;;;2.30;;
45466;SDS011;31212;49.734;8.490;2023-05-10T05:04:01;2.90;;;1.73;;
45466;SDS011;31212;49.734;8.490;2023-05-10T05:06:27;3.25;;;1.80;;
45466;SDS011;31212;49.734;8.490;2023-05-10T05:08:54;3.05;;;1.92;;
45466;SDS011;31212;49.734;8.490;2023-05-10T05:11:22;4.57;;;2.05;;
45466;SDS011;31212;49.734;8.490;2023-05-10T05:13:48;2.95;;;2.30;;
45466;SDS011;31212;49.734;8.490;2023-05-10T05:16:15;3.58;;;2.30;;
45466;SDS011;31212;49.734;8.490;2023-05-10T05:18:41;4.57;;;2.35;;
45466;SDS011;31212;49.734;8.490;2023-05-10T05:21:14;5.93;;;2.95;;
45466;SDS011;31212;49.734;8.490;2023-05-10T05:23:41;7.07;;;2.83;;
45466;SDS011;31212;49.734;8.490;2023-05-10T05:26:07;7.05;;;3.83;;
45466;SDS011;31212;49.734;8.490;2023-05-10T05:28:36;4.68;;;2.88;;
45466;SDS011;31212;49.734;8.490;2023-05-10T05:31:02;6.07;;;2.45;;
45466;SDS011;31212;49.734;8.490;2023-05-10T05:33:29;3.92;;;3.38;;
45466;SDS011;31212;49.734;8.490;2023-05-10T05:35:55;6.30;;;3.55;;
45466;SDS011;31212;49.734;8.490;2023-05-10T05:38:22;7.50;;;4.13;;
45466;SDS011;31212;49.734;8.490;2023-05-10T05:40:48;5.93;;;3.70;;
45466;SDS011;31212;49.734;8.490;2023-05-10T05:43:15;8.75;;;4.30;;
45466;SDS011;31212;49.734;8.490;2023-05-10T05:45:43;5.50;;;3.67;;
45466;SDS011;31212;49.734;8.490;2023-05-10T05:48:09;6.10;;;3.10;;
45466;SDS011;31212;49.734;8.490;2023-05-10T05:50:36;4.95;;;2.38;;
45466;SDS011;31212;49.734;8.490;2023-05-10T05:53:02;3.75;;;2.67;;
45466;SDS011;31212;49.734;8.490;2023-05-10T05:55:29;5.13;;;2.10;;
45466;SDS011;31212;49.734;8.490;2023-05-10T05:57:56;4.30;;;2.65;;
45466;SDS011;31212;49.734;8.490;2023-05-10T06:00:23;6.10;;;2.30;;
45466;SDS011;31212;49.734;8.490;2023-05-10T06:02:51;5.40;;;2.72;;
45466;SDS011;31212;49.734;8.490;2023-05-10T06:05:17;3.25;;;2.63;;
45466;SDS011;31212;49.734;8.490;2023-05-10T06:07:45;5.75;;;2.50;;
45466;SDS011;31212;49.734;8.490;2023-05-10T06:10:11;3.80;;;2.40;;
45466;SDS011;31212;49.734;8.490;2023-05-10T06:12:38;4.45;;;2.60;;
45466;SDS011;31212;49.734;8.490;2023-05-10T06:15:05;3.58;;;2.58;;
45466;SDS011;31212;49.734;8.490;2023-05-10T06:17:32;3.33;;;2.20;;
45466;SDS011;31212;49.734;8.490;2023-05-10T06:20:00;3.25;;;2.40;;
45466;SDS011;31212;49.734;8.490;2023-05-10T06:22:26;4.72;;;2.80;;
45466;SDS011;31212;49.734;8.490;2023-05-10T06:24:53;3.38;;;2.47;;
45466;SDS011;31212;49.734;8.490;2023-05-10T06:27:19;4.13;;;3.13;;
45466;SDS011;31212;49.734;8.490;2023-05-10T06:29:46;2.90;;;2.50;;
45466;SDS011;31212;49.734;8.490;2023-05-10T06:32:12;5.72;;;2.95;;
45466;SDS011;31212;49.734;8.490;2023-05-10T06:34:39;4.00;;;2.75;;
45466;SDS011;31212;49.734;8.490;2023-05-10T06:37:07;4.07;;;2.60;;
45466;SDS011;31212;49.734;8.490;2023-05-10T06:39:34;7.03;;;3.28;;
45466;SDS011;31212;49.734;8.490;2023-05-10T06:42:00;3.90;;;2.78;;
45466;SDS011;31212;49.734;8.490;2023-05-10T06:44:31;4.55;;;3.22;;
45466;SDS011;31212;49.734;8.490;2023-05-10T06:46:58;3.60;;;2.80;;
45466;SDS011;31212;49.734;8.490;2023-05-10T06:49:24;4.90;;;3.05;;
45466;SDS011;31212;49.734;8.490;2023-05-10T06:51:51;5.65;;;3.17;;
45466;SDS011;31212;49.734;8.490;2023-05-10T06:54:19;3.28;;;2.50;;
45466;SDS011;31212;49.734;8.490;2023-05-10T06:56:45;10.88;;;2.65;;
45466;SDS011;31212;49.734;8.490;2023-05-10T06:59:12;3.80;;;2.10;;
45466;SDS011;31212;49.734;8.490;2023-05-10T07:01:40;3.08;;;2.00;;
45466;SDS011;31212;49.734;8.490;2023-05-10T07:04:06;2.88;;;2.03;;
45466;SDS011;31212;49.734;8.490;2023-05-10T07:06:33;3.05;;;2.35;;
45466;SDS011;31212;49.734;8.490;2023-05-10T07:08:59;3.08;;;2.00;;
45466;SDS011;31212;49.734;8.490;2023-05-10T07:11:27;5.80;;;1.95;;
45466;SDS011;31212;49.734;8.490;2023-05-10T07:13:54;2.67;;;2.03;;
45466;SDS011;31212;49.734;8.490;2023-05-10T07:16:20;3.28;;;2.20;;
45466;SDS011;31212;49.734;8.490;2023-05-10T07:18:50;6.18;;;2.60;;
45466;SDS011;31212;49.734;8.490;2023-05-10T07:21:18;2.17;;;1.73;;
45466;SDS011;31212;49.734;8.490;2023-05-10T07:23:44;2.17;;;1.65;;
45466;SDS011;31212;49.734;8.490;2023-05-10T07:26:11;2.90;;;1.77;;
45466;SDS011;31212;49.734;8.490;2023-05-10T07:28:38;4.45;;;2.10;;
45466;SDS011;31212;49.734;8.490;2023-05-10T07:31:05;1.67;;;1.25;;
45466;SDS011;31212;49.734;8.490;2023-05-10T07:33:32;3.20;;;1.63;;
45466;SDS011;31212;49.734;8.490;2023-05-10T07:35:58;1.55;;;1.30;;
45466;SDS011;31212;49.734;8.490;2023-05-10T07:38:25;1.90;;;1.70;;
45466;SDS011;31212;49.734;8.490;2023-05-10T07:40:52;4.90;;;1.60;;
45466;SDS011;31212;49.734;8.490;2023-05-10T07:43:18;2.38;;;1.30;;
45466;SDS011;31212;49.734;8.490;2023-05-10T07:45:46;2.05;;;1.23;;
45466;SDS011;31212;49.734;8.490;2023-05-10T07:48:12;3.10;;;1.60;;
45466;SDS011;31212;49.734;8.490;2023-05-10T07:50:39;1.20;;;1.10;;
45466;SDS011;31212;49.734;8.490;2023-05-10T07:53:05;4.55;;;2.13;;
45466;SDS011;31212;49.734;8.490;2023-05-10T07:55:32;2.05;;;1.40;;
45466;SDS011;31212;49.734;8.490;2023-05-10T07:57:59;3.08;;;1.33;;
45466;SDS011;31212;49.734;8.490;2023-05-10T08:00:26;1.30;;;1.17;;
45466;SDS011;31212;49.734;8.490;2023-05-10T08:02:54;1.02;;;1.00;;
45466;SDS011;31212;49.734;8.490;2023-05-10T08:05:20;1.40;;;1.05;;
45466;SDS011;31212;49.734;8.490;2023-05-10T08:07:47;1.20;;;1.02;;
45466;SDS011;31212;49.734;8.490;2023-05-10T08:10:13;1.60;;;1.20;;
45466;SDS011;31212;49.734;8.490;2023-05-10T08:12:40;1.95;;;1.00;;
45466;SDS011;31212;49.734;8.490;2023-05-10T08:15:07;3.40;;;1.30;;
45466;SDS011;31212;49.734;8.490;2023-05-10T08:17:34;0.90;;;0.88;;
45466;SDS011;31212;49.734;8.490;2023-05-10T08:20:02;2.50;;;1.67;;
45466;SDS011;31212;49.734;8.490;2023-05-10T08:22:30;2.25;;;1.50;;
45466;SDS011;31212;49.734;8.490;2023-05-10T08:24:56;1.35;;;0.98;;
45466;SDS011;31212;49.734;8.490;2023-05-10T08:27:23;2.22;;;0.90;;
45466;SDS011;31212;49.734;8.490;2023-05-10T08:29:49;0.85;;;0.70;;
45466;SDS011;31212;49.734;8.490;2023-05-10T08:32:15;1.83;;;1.60;;
45466;SDS011;31212;49.734;8.490;2023-05-10T08:34:42;1.33;;;1.05;;
45466;SDS011;31212;49.734;8.490;2023-05-10T08:37:10;1.40;;;1.05;;
45466;SDS011;31212;49.734;8.490;2023-05-10T08:39:38;1.13;;;1.02;;
45466;SDS011;31212;49.734;8.490;2023-05-10T08:42:04;1.52;;;1.20;;
45466;SDS011;31212;49.734;8.490;2023-05-10T08:44:34;0.90;;;0.77;;
45466;SDS011;31212;49.734;8.490;2023-05-10T08:47:02;1.98;;;0.90;;
45466;SDS011;31212;49.734;8.490;2023-05-10T08:49:31;3.42;;;1.48;;
45466;SDS011;31212;49.734;8.490;2023-05-10T08:51:59;3.95;;;2.30;;
45466;SDS011;31212;49.734;8.490;2023-05-10T08:54:30;2.53;;;1.00;;
45466;SDS011;31212;49.734;8.490;2023-05-10T08:56:57;0.93;;;0.77;;
45466;SDS011;31212;49.734;8.490;2023-05-10T08:59:24;0.82;;;0.82;;
45466;SDS011;31212;49.734;8.490;2023-05-10T09:01:51;0.88;;;0.60;;
45466;SDS011;31212;49.734;8.490;2023-05-10T09:04:20;0.65;;;0.65;;
45466;SDS011;31212;49.734;8.490;2023-05-10T09:06:47;0.95;;;0.82;;
45466;SDS011;31212;49.734;8.490;2023-05-10T09:09:13;1.00;;;0.82;;
45466;SDS011;31212;49.734;8.490;2023-05-10T09:11:42;1.00;;;0.80;;
45466;SDS011;31212;49.734;8.490;2023-05-10T09:14:09;0.60;;;0.55;;
45466;SDS011;31212;49.734;8.490;2023-05-10T09:16:37;0.70;;;0.63;;
45466;SDS011;31212;49.734;8.490;2023-05-10T09:19:04;5.10;;;1.23;;
45466;SDS011;31212;49.734;8.490;2023-05-10T09:21:32;2.00;;;0.98;;
45466;SDS011;31212;49.734;8.490;2023-05-10T09:24:02;1.73;;;0.38;;
45466;SDS011;31212;49.734;8.490;2023-05-10T09:26:29;0.52;;;0.43;;
45466;SDS011;31212;49.734;8.490;2023-05-10T09:28:57;2.10;;;0.43;;
45466;SDS011;31212;49.734;8.490;2023-05-10T09:31:24;0.52;;;0.52;;
45466;SDS011;31212;49.734;8.490;2023-05-10T09:34:08;1.42;;;1.00;;
45466;SDS011;31212;49.734;8.490;2023-05-10T09:36:35;3.70;;;0.80;;
45466;SDS011;31212;49.734;8.490;2023-05-10T09:39:02;0.30;;;0.30;;
45466;SDS011;31212;49.734;8.490;2023-05-10T09:41:29;0.25;;;0.25;;
45466;SDS011;31212;49.734;8.490;2023-05-10T09:43:56;1.30;;;0.50;;
45466;SDS011;31212;49.734;8.490;2023-05-10T09:46:23;0.73;;;0.40;;
45466;SDS011;31212;49.734;8.490;2023-05-10T09:48:50;0.70;;;0.70;;
45466;SDS011;31212;49.734;8.490;2023-05-10T09:51:19;0.98;;;0.60;;
45466;SDS011;31212;49.734;8.490;2023-05-10T09:53:46;0.35;;;0.35;;
45466;SDS011;31212;49.734;8.490;2023-05-10T09:56:13;1.35;;;0.60;;
45466;SDS011;31212;49.734;8.490;2023-05-10T09:59:03;1.35;;;0.40;;
45466;SDS011;31212;49.734;8.490;2023-05-10T10:01:29;0.68;;;0.50;;
45466;SDS011;31212;49.734;8.490;2023-05-10T10:03:56;0.63;;;0.63;;
45466;SDS011;31212;49.734;8.490;2023-05-10T10:06:23;0.40;;;0.40;;
45466;SDS011;31212;49.734;8.490;2023-05-10T10:08:50;0.57;;;0.50;;
45466;SDS011;31212;49.734;8.490;2023-05-10T10:11:17;0.50;;;0.50;;
45466;SDS011;31212;49.734;8.490;2023-05-10T10:13:43;1.85;;;0.50;;
45466;SDS011;31212;49.734;8.490;2023-05-10T10:16:11;0.32;;;0.32;;
45466;SDS011;31212;49.734;8.490;2023-05-10T10:18:38;0.50;;;0.50;;
45466;SDS011;31212;49.734;8.490;2023-05-10T10:21:05;0.60;;;0.52;;
45466;SDS011;31212;49.734;8.490;2023-05-10T10:23:34;0.88;;;0.77;;
45466;SDS011;31212;49.734;8.490;2023-05-10T10:26:01;2.33;;;0.90;;
45466;SDS011;31212;49.734;8.490;2023-05-10T10:28:32;1.10;;;0.70;;
45466;SDS011;31212;49.734;8.490;2023-05-10T10:31:12;0.90;;;0.90;;
45466;SDS011;31212;49.734;8.490;2023-05-10T10:33:50;2.33;;;0.80;;
45466;SDS011;31212;49.734;8.490;2023-05-10T10:36:22;0.95;;;0.70;;
45466;SDS011;31212;49.734;8.490;2023-05-10T10:38:55;1.80;;;1.10;;
45466;SDS011;31212;49.734;8.490;2023-05-10T10:41:32;0.95;;;0.85;;
45466;SDS011;31212;49.734;8.490;2023-05-10T10:47:10;0.63;;;0.63;;
45466;SDS011;31212;49.734;8.490;2023-05-10T10:50:02;6.22;;;0.88;;
45466;SDS011;31212;49.734;8.490;2023-05-10T10:52:31;0.90;;;0.43;;
45466;SDS011;31212;49.734;8.490;2023-05-10T10:55:00;2.25;;;1.15;;
45466;SDS011;31212;49.734;8.490;2023-05-10T10:57:31;1.13;;;0.80;;
45466;SDS011;31212;49.734;8.490;2023-05-10T11:02:53;0.73;;;0.50;;
45466;SDS011;31212;49.734;8.490;2023-05-10T11:05:25;0.30;;;0.30;;
45466;SDS011;31212;49.734;8.490;2023-05-10T11:08:06;0.28;;;0.28;;
45466;SDS011;31212;49.734;8.490;2023-05-10T11:10:35;1.05;;;0.40;;
45466;SDS011;31212;49.734;8.490;2023-05-10T11:13:02;0.30;;;0.30;;
45466;SDS011;31212;49.734;8.490;2023-05-10T11:15:30;0.95;;;0.57;;
45466;SDS011;31212;49.734;8.490;2023-05-10T11:17:59;3.78;;;0.55;;
45466;SDS011;31212;49.734;8.490;2023-05-10T11:20:33;0.32;;;0.32;;
45466;SDS011;31212;49.734;8.490;2023-05-10T11:23:11;0.63;;;0.50;;
45466;SDS011;31212;49.734;8.490;2023-05-10T11:25:41;0.43;;;0.38;;
45466;SDS011;31212;49.734;8.490;2023-05-10T11:28:09;0.52;;;0.43;;
45466;SDS011;31212;49.734;8.490;2023-05-10T11:30:37;0.47;;;0.25;;
45466;SDS011;31212;49.734;8.490;2023-05-10T11:33:06;2.80;;;0.45;;
45466;SDS011;31212;49.734;8.490;2023-05-10T11:35:37;0.68;;;0.60;;
45466;SDS011;31212;49.734;8.490;2023-05-10T11:38:05;0.43;;;0.43;;
45466;SDS011;31212;49.734;8.490;2023-05-10T11:40:32;3.13;;;0.60;;
45466;SDS011;31212;49.734;8.490;2023-05-10T11:42:59;0.73;;;0.50;;
45466;SDS011;31212;49.734;8.490;2023-05-10T11:45:25;1.00;;;0.75;;
45466;SDS011;31212;49.734;8.490;2023-05-10T11:47:53;0.90;;;0.90;;
45466;SDS011;31212;49.734;8.490;2023-05-10T11:50:20;3.42;;;1.00;;
45466;SDS011;31212;49.734;8.490;2023-05-10T11:52:50;2.38;;;0.70;;
45466;SDS011;31212;49.734;8.490;2023-05-10T11:55:17;0.57;;;0.57;;
45466;SDS011;31212;49.734;8.490;2023-05-10T11:57:43;0.75;;;0.68;;
45466;SDS011;31212;49.734;8.490;2023-05-10T12:00:11;0.77;;;0.77;;
45466;SDS011;31212;49.734;8.490;2023-05-10T12:02:40;0.93;;;0.60;;
45466;SDS011;31212;49.734;8.490;2023-05-10T12:05:07;2.33;;;0.50;;
45466;SDS011;31212;49.734;8.490;2023-05-10T12:07:36;3.20;;;1.05;;
45466;SDS011;31212;49.734;8.490;2023-05-10T12:10:04;0.60;;;0.60;;
45466;SDS011;31212;49.734;8.490;2023-05-10T12:12:35;1.27;;;0.60;;
45466;SDS011;31212;49.734;8.490;2023-05-10T12:15:10;3.20;;;0.60;;
45466;SDS011;31212;49.734;8.490;2023-05-10T12:17:44;0.75;;;0.55;;
45466;SDS011;31212;49.734;8.490;2023-05-10T12:20:15;0.45;;;0.40;;
45466;SDS011;31212;49.734;8.490;2023-05-10T12:22:48;0.98;;;0.95;;
45466;SDS011;31212;49.734;8.490;2023-05-10T12:25:16;0.75;;;0.65;;
45466;SDS011;31212;49.734;8.490;2023-05-10T12:27:50;1.70;;;0.98;;
45466;SDS011;31212;49.734;8.490;2023-05-10T12:30:21;0.82;;;0.65;;
45466;SDS011;31212;49.734;8.490;2023-05-10T12:32:48;1.30;;;0.90;;
45466;SDS011;31212;49.734;8.490;2023-05-10T12:35:15;7.07;;;2.03;;
45466;SDS011;31212;49.734;8.490;2023-05-10T12:37:42;2.10;;;1.05;;
45466;SDS011;31212;49.734;8.490;2023-05-10T12:40:10;0.85;;;0.70;;
45466;SDS011;31212;49.734;8.490;2023-05-10T12:42:38;3.00;;;1.00;;
45466;SDS011;31212;49.734;8.490;2023-05-10T12:45:05;4.30;;;0.90;;
45466;SDS011;31212;49.734;8.490;2023-05-10T12:47:33;1.20;;;0.68;;
45466;SDS011;31212;49.734;8.490;2023-05-10T12:50:00;2.20;;;1.17;;
45466;SDS011;31212;49.734;8.490;2023-05-10T12:52:28;1.40;;;0.60;;
45466;SDS011;31212;49.734;8.490;2023-05-10T12:54:54;0.75;;;0.75;;
45466;SDS011;31212;49.734;8.490;2023-05-10T12:57:22;1.73;;;0.80;;
45466;SDS011;31212;49.734;8.490;2023-05-10T12:59:49;0.60;;;0.50;;
45466;SDS011;31212;49.734;8.490;2023-05-10T13:02:15;0.82;;;0.60;;
45466;SDS011;31212;49.734;8.490;2023-05-10T13:04:43;3.20;;;0.50;;
45466;SDS011;31212;49.734;8.490;2023-05-10T13:07:09;0.75;;;0.65;;
45466;SDS011;31212;49.734;8.490;2023-05-10T13:09:36;0.77;;;0.50;;
45466;SDS011;31212;49.734;8.490;2023-05-10T13:12:03;0.70;;;0.43;;
45466;SDS011;31212;49.734;8.490;2023-05-10T13:14:30;1.20;;;0.60;;
45466;SDS011;31212;49.734;8.490;2023-05-10T13:16:57;2.17;;;0.43;;
45466;SDS011;31212;49.734;8.490;2023-05-10T13:19:24;1.95;;;0.52;;
45466;SDS011;31212;49.734;8.490;2023-05-10T13:21:50;1.35;;;0.60;;
45466;SDS011;31212;49.734;8.490;2023-05-10T13:24:16;1.60;;;0.57;;
45466;SDS011;31212;49.734;8.490;2023-05-10T13:26:43;0.85;;;0.57;;
45466;SDS011;31212;49.734;8.490;2023-05-10T13:29:10;1.75;;;0.80;;
45466;SDS011;31212;49.734;8.490;2023-05-10T13:31:37;3.28;;;1.10;;
45466;SDS011;31212;49.734;8.490;2023-05-10T13:34:04;1.27;;;0.65;;
45466;SDS011;31212;49.734;8.490;2023-05-10T13:36:31;2.75;;;0.50;;
45466;SDS011;31212;49.734;8.490;2023-05-10T13:38:57;1.70;;;0.60;;
45466;SDS011;31212;49.734;8.490;2023-05-10T13:41:26;1.55;;;0.40;;
45466;SDS011;31212;49.734;8.490;2023-05-10T13:43:52;0.52;;;0.52;;
45466;SDS011;31212;49.734;8.490;2023-05-10T13:46:19;1.88;;;0.80;;
45466;SDS011;31212;49.734;8.490;2023-05-10T13:48:47;0.60;;;0.60;;
45466;SDS011;31212;49.734;8.490;2023-05-10T13:51:14;1.00;;;0.60;;
45466;SDS011;31212;49.734;8.490;2023-05-10T13:53:40;1.27;;;1.25;;
45466;SDS011;31212;49.734;8.490;2023-05-10T13:56:07;0.82;;;0.60;;
45466;SDS011;31212;49.734;8.490;2023-05-10T13:58:33;3.10;;;0.63;;
45466;SDS011;31212;49.734;8.490;2023-05-10T14:01:01;0.70;;;0.70;;
45466;SDS011;31212;49.734;8.490;2023-05-10T14:03:27;3.50;;;0.77;;
45466;SDS011;31212;49.734;8.490;2023-05-10T14:05:55;2.60;;;0.45;;
45466;SDS011;31212;49.734;8.490;2023-05-10T14:08:21;0.70;;;0.50;;
45466;SDS011;31212;49.734;8.490;2023-05-10T14:10:49;0.28;;;0.28;;
45466;SDS011;31212;49.734;8.490;2023-05-10T14:13:15;0.63;;;0.50;;
45466;SDS011;31212;49.734;8.490;2023-05-10T14:15:42;2.33;;;0.55;;
45466;SDS011;31212;49.734;8.490;2023-05-10T14:18:08;3.92;;;0.55;;
45466;SDS011;31212;49.734;8.490;2023-05-10T14:20:35;1.08;;;0.50;;
45466;SDS011;31212;49.734;8.490;2023-05-10T14:23:02;0.88;;;0.50;;
45466;SDS011;31212;49.734;8.490;2023-05-10T14:25:29;0.63;;;0.50;;
45466;SDS011;31212;49.734;8.490;2023-05-10T14:27:56;2.35;;;0.55;;
45466;SDS011;31212;49.734;8.490;2023-05-10T14:30:22;2.28;;;0.95;;
45466;SDS011;31212;49.734;8.490;2023-05-10T14:32:48;0.60;;;0.43;;
45466;SDS011;31212;49.734;8.490;2023-05-10T14:35:15;1.05;;;0.52;;
45466;SDS011;31212;49.734;8.490;2023-05-10T14:37:42;1.60;;;0.50;;
45466;SDS011;31212;49.734;8.490;2023-05-10T14:40:10;4.35;;;0.55;;
45466;SDS011;31212;49.734;8.490;2023-05-10T14:42:37;0.57;;;0.57;;
45466;SDS011;31212;49.734;8.490;2023-05-10T14:45:04;0.70;;;0.50;;
45466;SDS011;31212;49.734;8.490;2023-05-10T14:47:31;1.90;;;0.80;;
45466;SDS011;31212;49.734;8.490;2023-05-10T14:49:58;4.03;;;0.90;;
45466;SDS011;31212;49.734;8.490;2023-05-10T14:52:25;0.52;;;0.40;;
45466;SDS011;31212;49.734;8.490;2023-05-10T14:54:54;0.40;;;0.40;;
45466;SDS011;31212;49.734;8.490;2023-05-10T14:57:23;0.43;;;0.40;;
45466;SDS011;31212;49.734;8.490;2023-05-10T14:59:50;2.38;;;0.77;;
45466;SDS011;31212;49.734;8.490;2023-05-10T15:02:16;0.68;;;0.40;;